Latest Weather Observations for Jandakot

IDW60901

Issued at 11:15 pm WST Wednesday 26 November 2014 (issued every 10 minutes, with the page automatically refreshed every 10 minutes)

About weather observations | Map of Perth area stations | Latest observations for Perth area | Other Formats
Station Details ID: 009172 Name: JANDAKOT AERO Lat: -32.10 Lon: 115.88 Height: 30.0 m
Data from the previous 72 hours. | See also: Recent months at Jandakot
Date/Time
WST
Tmp

°C
App
Tmp
°C
Dew
Point
°C
Rel
Hum
%
Delta-T

°C
Wind Press
QNH
hPa
Press
MSL
hPa
Rain
since
9 am
mm
Dir
 
Spd
km/h
Gust
km/h
Spd
kts
Gust
kts
26/11:00pm 21.1 17.9 15.2 69 3.5 E 26 39 14 21 1010.0 1009.9 6.4
26/10:30pm 21.0 18.3 15.5 71 3.3 E 24 33 13 18 1009.8 1009.7 6.4
26/10:00pm 20.7 18.0 15.7 73 3.0 E 24 39 13 21 1010.0 1009.9 6.4
26/09:30pm 20.0 18.3 16.2 79 2.3 E 20 26 11 14 1010.4 1010.3 6.4
26/09:00pm 20.3 18.5 16.0 76 2.6 E 20 32 11 17 1010.9 1010.8 6.2
26/08:30pm 19.4 18.1 16.8 85 1.6 ESE 19 24 10 13 1010.9 1010.8 6.2
26/08:00pm 20.0 18.5 16.3 79 2.2 NE 19 24 10 13 1012.2 1012.1 6.2
26/07:30pm 19.4 19.5 17.4 88 1.2 E 13 15 7 8 1012.2 1012.1 5.8
26/07:00pm 19.7 18.6 17.2 85 1.5 SE 19 24 10 13 1011.7 1011.6 5.4
26/06:30pm 19.6 19.2 17.1 85 1.5 E 15 22 8 12 1011.4 1011.3 5.2
26/06:00pm 20.3 17.6 16.5 79 2.3 E 26 39 14 21 1010.7 1010.6 4.6
26/05:30pm 20.5 16.4 16.5 78 2.4 ENE 33 43 18 23 1010.0 1009.9 3.4
26/05:00pm 21.6 15.4 15.8 69 3.5 ENE 43 56 23 30 1008.7 1008.6 2.0
26/04:30pm 22.4 18.2 15.8 66 4.0 E 32 41 17 22 1008.8 1008.7 0.8
26/04:00pm 24.6 20.7 14.3 52 6.1 NNE 28 32 15 17 1008.8 1008.7 0.2
26/03:30pm 26.0 21.4 12.3 42 7.9 E 28 39 15 21 1007.1 1007.0 0.2
26/03:00pm 24.5 19.8 14.4 53 6.0 SE 32 44 17 24 1006.6 1006.5 0.2
26/02:56pm 24.9 20.8 13.9 50 6.5 SE 28 39 15 21 1007.1 1007.0 0.2
26/02:30pm 25.6 22.9 13.5 47 7.1 SE 20 32 11 17 1009.1 1009.0 0.2
26/02:00pm 25.3 21.8 14.4 50 6.5 S 26 32 14 17 1008.9 1008.8 0.2
26/01:30pm 26.9 24.9 13.8 44 7.8 WSW 17 22 9 12 1010.1 1010.0 0.2
26/01:11pm 29.0 27.5 13.2 37 9.4 WSW 13 17 7 9 1009.8 1009.7 0.2
26/01:00pm 30.4 28.8 10.2 28 11.5 S 9 13 5 7 1009.6 1009.5 0.2
26/12:52pm 30.6 28.9 9.8 27 11.8 SSE 9 13 5 7 1009.5 1009.4 0.2
26/12:30pm 30.1 26.1 9.2 27 11.7 E 20 28 11 15 1009.5 1009.4 0.2
26/12:00pm 29.7 24.6 9.1 27 11.5 ESE 26 33 14 18 1009.9 1009.8 0.2
26/11:30am 28.5 24.1 10.5 32 10.2 ESE 24 32 13 17 1010.5 1010.4 0.2
26/11:00am 28.2 23.9 10.8 33 9.9 ESE 24 35 13 19 1011.1 1011.0 0.2
26/10:30am 24.8 21.2 10.6 40 7.9 E 20 28 11 15 1011.7 1011.6 0.2
26/10:00am 24.3 21.9 10.2 41 7.8 E 13 26 7 14 1012.1 1012.0 0.2
26/09:30am 25.1 19.6 7.5 32 9.3 ENE 26 33 14 18 1012.5 1012.4 0.0
26/09:00am 24.9 19.9 8.0 34 9.0 ENE 24 32 13 17 1012.8 1012.7 0.0
26/08:30am 24.4 19.3 7.8 34 8.8 ENE 24 32 13 17 1012.9 1012.8 0.0
26/08:00am 23.6 18.6 8.1 37 8.2 E 24 35 13 19 1012.9 1012.8 0.0
26/07:30am 22.5 18.1 7.5 38 7.8 ENE 20 32 11 17 1013.2 1013.1 0.0
26/07:00am 21.8 17.0 7.5 39 7.4 ENE 22 35 12 19 1012.9 1012.8 0.0
26/06:30am 21.0 17.0 8.2 43 6.7 E 19 30 10 16 1012.9 1012.8 0.0
26/06:00am 20.4 15.8 8.3 45 6.3 E 22 33 12 18 1012.8 1012.7 0.0
26/05:30am 19.7 14.4 8.6 48 5.8 E 26 37 14 20 1012.8 1012.7 0.0
26/05:00am 19.7 14.8 8.6 48 5.8 E 24 33 13 18 1012.9 1012.8 0.0
26/04:30am 19.6 13.2 8.7 49 5.7 E 32 43 17 23 1012.9 1012.8 0.0
26/04:00am 19.9 13.3 8.4 47 6.0 E 33 46 18 25 1012.7 1012.6 0.0
26/03:49am 19.9 14.3 8.6 48 5.9 E 28 46 15 25 1012.7 1012.6 0.0
26/03:30am 20.2 13.8 8.6 47 6.1 E 32 44 17 24 1012.7 1012.6 0.0
26/03:00am 20.4 14.7 8.3 45 6.3 E 28 39 15 21 1012.6 1012.5 0.0
26/02:30am 20.6 16.5 8.6 46 6.3 E 20 32 11 17 1012.7 1012.6 0.0
26/02:00am 21.4 13.5 8.0 42 7.0 E 39 52 21 28 1012.2 1012.1 0.0
26/01:32am 21.8 14.7 8.1 41 7.2 E 35 54 19 29 1012.0 1011.9 0.0
26/01:30am 21.9 14.4 7.9 40 7.3 E 37 54 20 29 1012.1 1012.0 0.0
26/01:01am 22.7 15.2 7.8 38 7.8 E 37 56 20 30 1012.0 1011.9 0.0
26/01:00am 22.6 15.5 7.9 39 7.7 E 35 52 19 28 1012.1 1012.0 0.0
26/12:30am 23.5 17.0 8.0 37 8.2 E 32 50 17 27 1012.3 1012.2 0.0
26/12:18am 23.9 18.0 7.5 35 8.6 E 28 46 15 25 1012.2 1012.1 0.0
26/12:00am 24.4 17.0 6.9 32 9.1 E 35 50 19 27 1012.4 1012.3 0.0
 
Date/Time
WST
Tmp

°C
App
Tmp
°C
Dew
Point
°C
Rel
Hum
%
Delta-T

°C
Wind Press
QNH
hPa
Press
MSL
hPa
Rain
since
9 am
mm
Dir
 
Spd
km/h
Gust
km/h
Spd
kts
Gust
kts
25/11:30pm 25.2 17.4 5.1 27 10.2 E 35 54 19 29 1012.5 1012.4 0.0
25/11:28pm 25.3 17.5 4.9 27 10.3 E 35 54 19 29 1012.4 1012.3 0.0
25/11:00pm 26.1 18.4 2.1 21 11.6 E 32 43 17 23 1012.6 1012.5 0.0
25/10:46pm 26.1 19.0 1.3 20 11.8 ESE 28 46 15 25 1012.8 1012.7 0.0
25/10:30pm 26.2 19.1 1.1 19 11.9 E 28 39 15 21 1013.0 1012.9 0.0
25/10:00pm 25.8 19.9 1.8 21 11.5 ESE 22 32 12 17 1013.1 1013.0 0.0
25/09:30pm 24.4 20.2 3.6 26 10.2 SE 15 20 8 11 1013.3 1013.2 0.0
25/09:00pm 22.3 18.9 5.8 34 8.3 SSE 13 17 7 9 1013.2 1013.1 0.0
25/08:30pm 23.9 20.8 5.5 30 9.3 SSE 11 13 6 7 1013.3 1013.2 0.0
25/08:00pm 25.5 22.0 5.3 27 10.3 SE 13 15 7 8 1013.2 1013.1 0.0
25/07:30pm 27.7 23.9 3.9 21 12.0 SE 13 17 7 9 1012.8 1012.7 0.0
25/07:00pm 29.4 25.5 3.2 18 13.2 SE 13 17 7 9 1012.6 1012.5 0.0
25/06:30pm 31.4 26.0 1.1 14 14.9 SE 19 24 10 13 1012.6 1012.5 0.0
25/06:00pm 32.6 26.9 0.3 12 15.8 SE 20 30 11 16 1012.6 1012.5 0.0
25/05:30pm 33.0 26.5 0.0 12 16.1 SE 24 33 13 18 1012.5 1012.4 0.0
25/05:00pm 33.4 28.2 0.2 12 16.3 SSE 17 28 9 15 1012.8 1012.7 0.0
25/04:30pm 33.8 29.2 1.3 12 16.3 SE 15 24 8 13 1013.0 1012.9 0.0
25/04:00pm 33.6 28.6 1.6 13 16.1 ESE 17 24 9 13 1013.3 1013.2 0.0
25/03:30pm 33.9 28.0 1.9 13 16.2 E 22 30 12 16 1013.6 1013.5 0.0
25/03:00pm 33.4 30.4 4.2 16 15.3 ESE 9 15 5 8 1013.9 1013.8 0.0
25/02:30pm 33.5 28.4 3.3 15 15.6 SE 19 28 10 15 1014.2 1014.1 0.0
25/02:00pm 32.9 28.1 4.5 17 14.9 E 19 26 10 14 1014.6 1014.5 0.0
25/01:30pm 32.0 27.1 5.1 18 14.2 ENE 20 26 11 14 1015.1 1015.0 0.0
25/01:00pm 31.2 27.1 6.4 21 13.3 E 17 26 9 14 1015.7 1015.6 0.0
25/12:30pm 30.4 26.0 6.4 22 12.8 ESE 19 32 10 17 1016.2 1016.1 0.0
25/12:00pm 29.6 26.1 7.1 24 12.1 SE 15 24 8 13 1016.6 1016.5 0.0
25/11:30am 28.4 25.0 7.6 27 11.2 E 15 22 8 12 1017.1 1017.0 0.0
25/11:00am 28.0 24.3 7.8 28 10.9 E 17 28 9 15 1017.5 1017.4 0.0
25/10:30am 27.2 23.0 7.3 28 10.6 E 19 26 10 14 1017.8 1017.7 0.0
25/10:00am 25.6 20.8 7.2 31 9.7 E 22 32 12 17 1018.3 1018.2 0.0
25/09:30am 24.2 19.8 6.6 32 9.1 ENE 19 28 10 15 1018.7 1018.6 0.0
25/09:00am 23.0 18.0 6.3 34 8.5 E 22 30 12 16 1018.9 1018.8 0.0
25/08:30am 21.6 17.2 6.4 37 7.7 NE 19 24 10 13 1019.2 1019.1 0.0
25/08:00am 19.6 15.7 6.9 43 6.4 E 17 22 9 12 1019.3 1019.2 0.0
25/07:30am 17.8 12.9 7.0 49 5.4 E 22 30 12 16 1019.3 1019.2 0.0
25/07:00am 16.1 11.2 6.7 53 4.6 E 22 33 12 18 1019.3 1019.2 0.0
25/06:30am 15.0 10.0 6.5 57 4.1 E 22 35 12 19 1019.2 1019.1 0.0
25/06:00am 15.0 10.4 6.5 57 4.1 E 20 35 11 19 1018.9 1018.8 0.0
25/05:30am 14.7 9.3 6.4 57 4.0 E 24 41 13 22 1018.7 1018.6 0.0
25/05:00am 14.7 9.7 6.4 57 4.0 E 22 32 12 17 1018.6 1018.5 0.0
25/04:30am 14.9 10.5 6.7 58 4.0 E 19 28 10 15 1018.4 1018.3 0.0
25/04:00am 15.1 10.6 6.9 58 4.0 E 20 28 11 15 1018.2 1018.1 0.0
25/03:30am 15.8 10.9 6.8 55 4.4 E 22 37 12 20 1018.0 1017.9 0.0
25/03:00am 16.2 11.9 6.9 54 4.6 E 19 24 10 13 1018.2 1018.1 0.0
25/02:30am 17.0 12.5 6.9 51 5.0 E 20 28 11 15 1018.1 1018.0 0.0
25/02:00am 17.2 11.8 6.4 49 5.3 E 24 35 13 19 1018.0 1017.9 0.0
25/01:30am 17.7 12.1 5.2 43 6.0 E 24 33 13 18 1018.1 1018.0 0.0
25/01:00am 18.0 13.2 4.6 41 6.4 E 19 28 10 15 1018.4 1018.3 0.0
25/12:50am 17.9 12.8 4.1 40 6.5 E 20 28 11 15 1018.5 1018.4 0.0
25/12:30am 12.8 10.3 8.1 73 2.3 ESE 11 22 6 12 1018.6 1018.5 0.0
25/12:00am 11.4 10.5 9.4 87 1.0 S 4 7 2 4 1018.8 1018.7 0.0
 
Date/Time
WST
Tmp

°C
App
Tmp
°C
Dew
Point
°C
Rel
Hum
%
Delta-T

°C
Wind Press
QNH
hPa
Press
MSL
hPa
Rain
since
9 am
mm
Dir
 
Spd
km/h
Gust
km/h
Spd
kts
Gust
kts
24/11:30pm 12.7 11.8 10.8 88 1.0 SSE 6 6 3 3 1018.8 1018.7 0.0
24/11:00pm 13.9 12.5 10.9 82 1.6 SSE 9 13 5 7 1018.8 1018.7 0.0
24/10:30pm 14.5 13.0 10.5 77 2.1 SSE 9 11 5 6 1019.1 1019.0 0.0
24/10:00pm 16.1 14.3 11.0 72 2.7 S 11 13 6 7 1019.3 1019.2 0.0
24/09:30pm 16.6 14.8 11.0 69 3.0 S 11 13 6 7 1019.6 1019.5 0.0
24/09:00pm 17.2 15.5 11.1 67 3.3 S 11 13 6 7 1019.6 1019.5 0.0
24/08:30pm 17.7 15.9 11.0 65 3.6 S 11 15 6 8 1019.5 1019.4 0.0
24/08:00pm 18.5 16.3 10.9 61 4.1 S 13 17 7 9 1019.4 1019.3 0.0
24/07:30pm 19.2 16.6 10.7 58 4.6 S 15 20 8 11 1019.4 1019.3 0.0
24/07:00pm 19.6 17.9 11.2 58 4.6 S 11 17 6 9 1019.3 1019.2 0.0
24/06:30pm 20.2 16.8 11.3 56 4.9 SSW 20 30 11 16 1019.0 1018.9 0.0
24/06:00pm 20.9 16.6 10.8 52 5.5 SSW 24 32 13 17 1018.7 1018.6 0.0
24/05:30pm 22.0 17.7 10.7 48 6.2 SSW 24 35 13 19 1018.3 1018.2 0.0
24/05:00pm 22.7 17.4 8.6 40 7.5 SSW 26 37 14 20 1018.1 1018.0 0.0
24/04:30pm 23.2 17.9 8.3 38 7.9 SSW 26 37 14 20 1017.9 1017.8 0.0
24/04:00pm 24.0 18.8 8.7 37 8.2 SW 26 33 14 18 1018.1 1018.0 0.0
24/03:30pm 23.7 18.3 8.2 37 8.2 SW 26 35 14 19 1018.3 1018.2 0.0
24/03:00pm 24.0 18.4 8.7 37 8.2 SW 28 37 15 20 1018.6 1018.5 0.0
24/02:30pm 24.3 19.1 8.9 37 8.3 WSW 26 37 14 20 1018.9 1018.8 0.0
24/02:00pm 24.8 20.6 8.1 34 8.9 WSW 20 28 11 15 1019.1 1019.0 0.0
24/01:30pm 25.7 20.8 2.2 21 11.3 S 17 24 9 13 1019.3 1019.2 0.0
24/01:00pm 25.0 21.4 2.9 23 10.7 NNE 11 19 6 10 1019.7 1019.6 0.0
24/12:30pm 24.5 20.6 3.3 25 10.3 ENE 13 19 7 10 1020.2 1020.1 0.0
24/12:00pm 23.7 19.8 3.2 26 9.9 ENE 13 19 7 10 1020.6 1020.5 0.0
24/11:30am 22.8 18.6 3.9 29 9.2 ESE 15 24 8 13 1021.0 1020.9 0.0
24/11:00am 22.8 18.0 4.5 30 9.0 SE 19 24 10 13 1021.4 1021.3 0.0
24/10:30am 20.7 16.2 4.3 34 7.9 E 17 28 9 15 1021.8 1021.7 0.0
24/10:00am 20.0 16.7 4.4 35 7.5 ESE 11 15 6 8 1022.1 1022.0 0.0
24/09:30am 19.8 14.7 4.1 35 7.5 E 20 30 11 16 1022.1 1022.0 0.0
24/09:00am 18.6 14.2 4.8 40 6.6 E 17 26 9 14 1022.5 1022.4 0.0
24/08:30am 17.4 12.6 4.5 42 6.1 ESE 19 24 10 13 1022.9 1022.8 0.0
24/08:00am 16.9 11.9 4.6 44 5.8 E 20 26 11 14 1023.0 1022.9 0.0
24/07:30am 15.3 9.9 4.5 48 5.0 ESE 22 30 12 16 1022.9 1022.8 0.0
24/07:00am 14.2 8.0 4.4 51 4.5 E 26 35 14 19 1022.8 1022.7 0.0
24/06:30am 13.6 8.2 4.7 55 4.1 E 22 30 12 16 1022.7 1022.6 0.0
24/06:00am 12.8 8.8 4.7 58 3.7 E 15 20 8 11 1022.8 1022.7 0.0
24/05:30am 11.8 7.7 4.2 59 3.4 ESE 15 20 8 11 1022.7 1022.6 0.0
24/05:00am 9.9 6.2 4.2 67 2.5 SE 13 19 7 10 1022.3 1022.2 0.0
24/04:30am 10.2 6.8 4.1 66 2.7 SE 11 17 6 9 1022.1 1022.0 0.0
24/04:00am 9.8 6.9 4.6 70 2.3 SSE 9 11 5 6 1021.7 1021.6 0.0
24/03:30am 10.0 6.8 4.9 70 2.3 S 11 15 6 8 1021.7 1021.6 0.0
24/03:00am 10.1 6.5 5.0 70 2.3 S 13 17 7 9 1021.6 1021.5 0.0
24/02:30am 10.3 7.1 5.0 69 2.4 S 11 15 6 8 1021.3 1021.2 0.0
24/02:00am 10.8 7.6 5.1 68 2.6 S 11 15 6 8 1021.4 1021.3 0.0
24/01:30am 11.2 7.7 5.3 67 2.7 S 13 15 7 8 1021.2 1021.1 0.0
24/01:00am 11.7 7.8 5.4 65 2.9 S 15 19 8 10 1021.2 1021.1 0.0
24/12:30am 12.2 8.3 5.5 63 3.1 S 15 20 8 11 1021.0 1020.9 0.0
24/12:00am 12.7 8.5 5.6 62 3.3 S 17 22 9 12 1021.0 1020.9 0.0
 
Date/Time
WST
Tmp

°C
App
Tmp
°C
Dew
Point
°C
Rel
Hum
%
Delta-T

°C
Wind Press
QNH
hPa
Press
MSL
hPa
Rain
since
9 am
mm
Dir
 
Spd
km/h
Gust
km/h
Spd
kts
Gust
kts
23/11:30pm 13.2 8.6 5.5 59 3.6 S 19 26 10 14 1020.9 1020.8 0.0

Latest Capital City Observations: Canberra | Sydney | Melbourne | Brisbane | Adelaide | Perth | Hobart | Darwin

Other Formats:

Comma delimited format used in spreadsheet applications
http://www.bom.gov.au/fwo/IDW60901/IDW60901.94609.axf

JavaScript Object Notation format (JSON) in row-major order
http://www.bom.gov.au/fwo/IDW60901/IDW60901.94609.json